Arbil, Iraq
Current Conditions -  °F | °C
As of 10:00 PM on Thursday 30 Oct 2014 (Local Time) from ORER Reporting Station
Few Clouds Few Clouds  
Wind Chill: 68°   Ceiling: Unl
Heat Index: 68°   Visibility: 6mi
Dew Point: 48°   Wind: 5mph
Humidity: 49%   Direction: 160°SSE
Pressure: 29.88"   Gusts: NA
Location:  36.19°N, 44.01°E
Report Text: ORER 301900Z 16004KT 9000 FEW040 20/09 Q1012 NOSIG
Loading
Personal Weather Stations






























Interactive Weather Map New forecast layout! Learn more

10-Day Weather Forecast

Advertisements
Track Severe Weather on mobile